createdAt,value
2022-12-01T04:09:20.467Z,20.80
2022-12-01T04:12:06.016Z,21.50
2022-12-01T04:14:34.280Z,21.70
2022-12-01T04:17:03.407Z,21.33
2022-12-01T04:19:32.033Z,25.07
2022-12-01T04:22:00.114Z,26.00
2022-12-01T04:24:29.570Z,21.87
2022-12-01T04:26:57.658Z,23.77
2022-12-01T04:29:25.671Z,21.87
2022-12-01T04:31:55.112Z,24.67
2022-12-01T04:34:23.315Z,24.10
2022-12-01T04:36:51.387Z,22.60
2022-12-01T04:39:19.715Z,23.67
2022-12-01T04:41:49.181Z,24.50
2022-12-01T04:44:17.455Z,23.33
2022-12-01T04:46:45.779Z,21.73
2022-12-01T04:49:13.803Z,19.97
2022-12-01T04:51:42.153Z,21.33
2022-12-01T04:54:10.209Z,22.07
2022-12-01T04:56:38.232Z,19.57
2022-12-01T04:59:07.881Z,22.00
2022-12-01T05:01:36.065Z,20.53
2022-12-01T05:04:04.393Z,22.30
2022-12-01T05:06:32.675Z,19.00
2022-12-01T05:09:02.395Z,18.53
2022-12-01T05:11:31.675Z,19.13
2022-12-01T05:14:00.263Z,18.70
2022-12-01T05:16:34.602Z,17.43
2022-12-01T05:19:22.187Z,21.97
2022-12-01T05:21:51.560Z,19.97
2022-12-01T05:24:20.565Z,19.23
2022-12-01T05:26:48.694Z,22.10
2022-12-01T05:29:16.818Z,19.13
2022-12-01T05:31:46.519Z,17.30
2022-12-01T05:34:14.778Z,18.33
2022-12-01T05:36:43.077Z,17.57
2022-12-01T05:39:11.950Z,19.90
2022-12-01T05:41:40.413Z,22.17
2022-12-01T05:44:08.478Z,19.07
2022-12-01T05:46:36.585Z,16.53
2022-12-01T05:49:07.027Z,18.00
2022-12-01T05:51:35.058Z,17.03
2022-12-01T05:54:03.528Z,18.77
2022-12-01T05:56:31.594Z,20.03
2022-12-01T05:58:59.613Z,18.40
2022-12-01T06:01:27.694Z,20.20
2022-12-01T06:03:55.759Z,16.70
2022-12-01T06:06:25.262Z,17.93
2022-12-01T06:08:56.060Z,18.43
2022-12-01T06:11:24.247Z,18.47
2022-12-01T06:13:54.025Z,18.27
2022-12-01T06:16:22.170Z,18.97
2022-12-01T06:18:51.724Z,19.97
2022-12-01T06:21:19.809Z,18.30
2022-12-01T06:23:50.935Z,20.40
2022-12-01T06:26:19.358Z,19.23
2022-12-01T06:28:47.449Z,18.17
2022-12-01T06:31:15.544Z,17.53
2022-12-01T06:33:43.720Z,19.97
2022-12-01T06:36:12.078Z,20.77
2022-12-01T06:38:40.198Z,20.23
2022-12-01T06:41:09.664Z,21.70
2022-12-01T06:43:38.667Z,19.30
2022-12-01T06:46:07.051Z,22.70
2022-12-01T06:48:35.523Z,21.67
2022-12-01T06:51:03.653Z,22.43
2022-12-01T06:53:31.913Z,23.67
2022-12-01T06:56:01.243Z,24.23
2022-12-01T06:58:31.379Z,22.60
2022-12-01T07:00:59.922Z,26.37
2022-12-01T07:03:28.156Z,24.50
2022-12-01T07:05:58.659Z,22.47
2022-12-01T07:08:26.990Z,26.43
2022-12-01T07:10:58.881Z,21.07
2022-12-01T07:13:32.830Z,22.57
2022-12-01T07:16:03.475Z,23.23
2022-12-01T07:18:32.084Z,22.07
2022-12-01T07:21:02.035Z,19.77
2022-12-01T07:23:30.249Z,22.40
2022-12-01T07:26:02.300Z,23.13
2022-12-01T07:28:31.006Z,20.47
2022-12-01T07:31:04.919Z,23.40
2022-12-01T07:33:33.792Z,21.13
2022-12-01T07:36:02.064Z,20.20
2022-12-01T07:38:30.569Z,22.90
2022-12-01T07:41:03.388Z,20.07
2022-12-01T07:43:32.101Z,19.00
2022-12-01T07:46:07.427Z,18.57
2022-12-01T07:48:36.140Z,21.93
2022-12-01T07:51:04.726Z,24.33
2022-12-01T07:53:32.899Z,19.47
2022-12-01T07:56:05.657Z,22.80
2022-12-01T07:58:37.088Z,20.73
2022-12-01T08:01:11.912Z,21.63
2022-12-01T08:03:41.009Z,23.60
2022-12-01T08:06:10.097Z,20.07
2022-12-01T08:08:39.909Z,19.90
2022-12-01T08:11:11.442Z,23.73
2022-12-01T08:13:40.042Z,23.70
2022-12-01T08:16:13.216Z,25.03
2022-12-01T08:18:44.043Z,20.10
2022-12-01T08:21:15.300Z,20.93
2022-12-01T08:23:44.497Z,26.43
2022-12-01T08:26:14.890Z,22.33
2022-12-01T08:28:44.115Z,23.83
2022-12-01T08:31:15.441Z,24.63
2022-12-01T08:33:43.559Z,23.90
2022-12-01T08:36:11.720Z,23.47
2022-12-01T08:38:39.824Z,23.00
2022-12-01T08:41:10.065Z,25.67
2022-12-01T08:46:32.688Z,23.60
2022-12-01T08:49:00.957Z,32.60
2022-12-01T08:51:29.206Z,24.63
2022-12-01T08:53:58.323Z,27.30
2022-12-01T08:56:28.500Z,28.60
2022-12-01T08:58:56.754Z,26.67
2022-12-01T09:01:25.766Z,29.87
2022-12-01T09:04:06.642Z,27.33
2022-12-01T09:06:38.658Z,28.97
2022-12-01T09:09:06.927Z,27.50
2022-12-01T09:11:34.990Z,26.00
2022-12-01T09:14:03.103Z,27.83
2022-12-01T09:16:31.310Z,31.40
2022-12-01T09:19:00.833Z,28.03
2022-12-01T09:21:31.405Z,28.67
2022-12-01T09:23:59.994Z,28.53
2022-12-01T09:26:28.572Z,28.67
2022-12-01T09:29:06.518Z,29.00
2022-12-01T09:31:35.494Z,28.03
2022-12-01T09:34:06.481Z,26.87
2022-12-01T09:36:36.261Z,26.50
2022-12-01T09:39:05.987Z,30.80
2022-12-01T09:41:38.144Z,24.77
2022-12-01T09:44:15.864Z,24.73
2022-12-01T09:46:47.950Z,26.33
2022-12-01T09:49:22.941Z,33.20
2022-12-01T09:51:51.847Z,28.80
2022-12-01T09:54:19.972Z,32.60
2022-12-01T09:56:53.092Z,29.37
2022-12-01T09:59:23.830Z,26.23
2022-12-01T10:01:56.822Z,26.13
2022-12-01T10:04:32.611Z,27.73
2022-12-01T10:07:03.170Z,27.73
2022-12-01T10:09:37.633Z,26.47
2022-12-01T10:12:14.342Z,27.33
2022-12-01T10:14:44.941Z,25.40
2022-12-01T10:17:22.775Z,28.03
2022-12-01T10:20:01.037Z,25.80
2022-12-01T10:22:46.002Z,29.97
2022-12-01T10:25:22.518Z,30.33
2022-12-01T10:28:01.583Z,31.97
2022-12-01T10:30:30.042Z,32.23
2022-12-01T10:33:03.522Z,29.47
2022-12-01T10:35:37.046Z,34.83
2022-12-01T10:38:07.147Z,31.03
2022-12-01T10:40:35.622Z,33.97
2022-12-01T10:43:04.315Z,35.40
2022-12-01T10:45:36.778Z,31.50
2022-12-01T10:48:17.088Z,32.17
2022-12-01T10:50:50.181Z,35.97
2022-12-01T10:53:28.901Z,36.90
2022-12-01T10:56:04.538Z,36.10
2022-12-01T10:58:34.881Z,35.07
2022-12-01T11:01:05.886Z,36.03
2022-12-01T11:03:37.469Z,37.20
2022-12-01T11:06:08.877Z,38.37
2022-12-01T11:08:41.881Z,38.33
2022-12-01T11:11:25.815Z,35.67
2022-12-01T11:13:54.935Z,37.43
2022-12-01T11:16:40.031Z,33.50
2022-12-01T11:19:27.766Z,43.73
2022-12-01T11:21:58.975Z,40.50
2022-12-01T11:24:31.440Z,43.80
2022-12-01T11:27:01.311Z,40.00
2022-12-01T11:29:35.522Z,42.33
2022-12-01T11:32:12.661Z,39.63
2022-12-01T11:34:40.869Z,40.67
2022-12-01T11:37:18.834Z,40.90
2022-12-01T11:39:48.722Z,45.37
2022-12-01T11:42:26.668Z,38.37
2022-12-01T11:44:58.088Z,41.60
2022-12-01T11:47:27.838Z,44.23
2022-12-01T11:49:58.011Z,44.27
2022-12-01T11:52:31.540Z,42.10
2022-12-01T11:55:19.862Z,42.83
2022-12-01T11:57:51.658Z,40.50
2022-12-01T12:00:22.615Z,41.90
2022-12-01T12:03:17.769Z,38.13
2022-12-01T12:06:38.389Z,35.57
2022-12-01T12:09:12.624Z,38.27
2022-12-01T12:11:50.321Z,41.30
2022-12-01T12:14:38.654Z,45.43
2022-12-01T12:17:22.229Z,45.97
2022-12-01T12:20:12.976Z,34.13
2022-12-01T12:22:56.767Z,35.80
2022-12-01T12:25:36.219Z,36.97
2022-12-01T12:28:18.958Z,32.43
2022-12-01T12:30:57.902Z,31.10
2022-12-01T12:34:00.873Z,31.40
2022-12-01T12:36:42.567Z,29.93
2022-12-01T12:39:27.025Z,29.73
2022-12-01T12:41:57.921Z,27.13
2022-12-01T12:44:48.061Z,34.47
2022-12-01T12:47:31.998Z,28.07
2022-12-01T12:50:10.129Z,28.13
2022-12-01T12:52:43.084Z,29.23
2022-12-01T12:55:19.764Z,26.30
2022-12-01T12:57:53.274Z,21.33
2022-12-01T13:00:24.821Z,21.57
2022-12-01T13:02:59.636Z,22.60
2022-12-01T13:05:36.307Z,18.90
2022-12-01T13:08:08.575Z,21.50
2022-12-01T13:10:44.019Z,16.50
2022-12-01T13:13:32.355Z,21.60
2022-12-01T13:16:06.257Z,15.23
2022-12-01T13:18:40.545Z,16.57
2022-12-01T13:21:13.365Z,17.87
2022-12-01T13:23:41.765Z,15.63
2022-12-01T13:26:11.958Z,19.17
2022-12-01T13:28:43.805Z,17.53
2022-12-01T13:31:14.821Z,16.30
2022-12-01T13:33:54.359Z,18.10
2022-12-01T13:36:45.633Z,15.03
2022-12-01T13:39:20.225Z,15.10
2022-12-01T13:41:59.937Z,12.87
2022-12-01T13:44:33.443Z,14.87
2022-12-01T13:47:05.370Z,15.07
2022-12-01T13:49:43.802Z,15.23
2022-12-01T13:52:33.124Z,15.30
2022-12-01T13:55:26.483Z,16.50
2022-12-01T13:58:23.864Z,16.10
2022-12-01T14:00:53.786Z,18.50
2022-12-01T14:03:42.353Z,16.87
2022-12-01T14:06:21.967Z,17.30
2022-12-01T14:08:51.245Z,14.80
2022-12-01T14:11:23.099Z,18.83
2022-12-01T14:13:54.434Z,18.33
2022-12-01T14:16:24.659Z,16.03
2022-12-01T14:18:56.308Z,18.53
2022-12-01T14:21:43.783Z,17.03
2022-12-01T14:24:23.403Z,17.13
2022-12-01T14:26:53.005Z,18.03
2022-12-01T14:29:33.866Z,18.47
2022-12-01T14:32:24.776Z,18.13
2022-12-01T14:35:00.684Z,15.93
2022-12-01T14:37:37.910Z,18.23
2022-12-01T14:40:12.660Z,16.97
2022-12-01T14:43:01.388Z,17.43
2022-12-01T14:45:33.587Z,18.50
2022-12-01T14:48:05.786Z,16.93
2022-12-01T14:50:45.188Z,17.60
2022-12-01T14:53:24.218Z,16.17
2022-12-01T14:55:57.538Z,16.47
2022-12-01T14:58:28.853Z,16.00
2022-12-01T15:01:05.109Z,17.83
2022-12-01T15:03:39.426Z,16.37
2022-12-01T15:06:08.499Z,22.00
2022-12-01T15:08:49.160Z,18.10
2022-12-01T15:11:25.601Z,18.33
2022-12-01T15:13:55.217Z,18.57
2022-12-01T15:16:25.526Z,24.17
2022-12-01T15:18:55.326Z,19.07
2022-12-01T15:21:25.225Z,22.87
2022-12-01T15:23:54.923Z,20.57
2022-12-01T15:26:25.166Z,19.20
2022-12-01T15:29:16.735Z,20.43
2022-12-01T15:31:47.635Z,20.93
2022-12-01T15:34:20.031Z,20.87
2022-12-01T15:36:49.422Z,18.80
2022-12-01T15:39:19.984Z,20.47
2022-12-01T15:41:54.050Z,20.60
2022-12-01T15:44:27.904Z,20.67
2022-12-01T15:46:56.162Z,19.63
2022-12-01T15:49:30.171Z,20.20
2022-12-01T15:52:07.809Z,25.13
2022-12-01T15:54:38.299Z,20.80
2022-12-01T15:57:07.408Z,19.50
2022-12-01T15:59:40.912Z,22.93
2022-12-01T16:02:24.456Z,21.30
2022-12-01T16:05:03.482Z,21.60
2022-12-01T16:08:11.375Z,22.87
2022-12-01T16:10:30.659Z,25.30
2022-12-01T16:13:32.757Z,20.90
2022-12-01T16:16:00.898Z,25.03
2022-12-01T16:18:32.971Z,24.53
2022-12-01T16:21:05.997Z,24.70
2022-12-01T16:23:34.598Z,24.93
2022-12-01T16:26:09.255Z,27.17
2022-12-01T16:28:37.371Z,19.60
2022-12-01T16:31:08.293Z,29.77
2022-12-01T16:33:39.797Z,26.13
2022-12-01T16:36:09.945Z,33.30
2022-12-01T16:38:38.137Z,30.13
2022-12-01T16:41:16.893Z,26.37
2022-12-01T16:43:59.407Z,25.40
2022-12-01T16:46:33.679Z,32.13
2022-12-01T16:49:02.125Z,29.33
2022-12-01T16:51:54.229Z,30.80
2022-12-01T16:54:19.991Z,28.17
2022-12-01T16:56:49.534Z,32.77
2022-12-01T16:59:17.556Z,29.37
2022-12-01T17:01:45.760Z,33.10
2022-12-01T17:04:13.879Z,31.43
2022-12-01T17:06:43.455Z,30.63
2022-12-01T17:09:11.764Z,31.70
2022-12-01T17:11:39.900Z,31.50
2022-12-01T17:14:08.102Z,27.33
2022-12-01T17:16:36.208Z,30.03
2022-12-01T17:19:05.132Z,36.13
2022-12-01T17:21:33.213Z,29.37
2022-12-01T17:24:02.939Z,31.07
2022-12-01T17:26:31.047Z,32.83
2022-12-01T17:28:59.160Z,29.93
2022-12-01T17:31:27.680Z,29.47
2022-12-01T17:33:56.433Z,31.23
2022-12-01T17:36:24.493Z,32.93
2022-12-01T17:38:52.662Z,30.70
2022-12-01T17:41:24.869Z,32.50
2022-12-01T17:43:53.389Z,34.27
2022-12-01T17:46:21.553Z,37.47
2022-12-01T17:48:49.691Z,32.77
2022-12-01T17:51:17.783Z,32.30
2022-12-01T17:53:46.188Z,26.87
2022-12-01T17:56:17.468Z,31.80
2022-12-01T17:58:46.908Z,35.90
2022-12-01T18:01:17.560Z,34.13
2022-12-01T18:03:46.472Z,30.10
2022-12-01T18:06:15.406Z,29.87
2022-12-01T18:08:43.937Z,27.63
2022-12-01T18:11:14.368Z,30.33
2022-12-01T18:13:44.828Z,35.60
2022-12-01T18:16:16.900Z,32.73
2022-12-01T18:18:45.062Z,31.40
2022-12-01T18:21:15.808Z,33.60
2022-12-01T18:23:49.033Z,30.63
2022-12-01T18:26:17.680Z,33.30
2022-12-01T18:28:45.934Z,28.77
2022-12-01T18:31:17.813Z,31.23
2022-12-01T18:33:46.497Z,32.07
2022-12-01T18:36:16.207Z,27.67
2022-12-01T18:38:47.228Z,28.80
2022-12-01T18:41:16.422Z,32.97
2022-12-01T18:43:45.421Z,28.57
2022-12-01T18:46:16.461Z,32.63
2022-12-01T18:48:46.173Z,34.67
2022-12-01T18:51:14.973Z,30.77
2022-12-01T18:53:45.428Z,31.67
2022-12-01T18:56:15.338Z,27.97
2022-12-01T18:58:43.900Z,32.33
2022-12-01T19:01:21.684Z,33.17
2022-12-01T19:03:50.796Z,31.20
2022-12-01T19:06:19.407Z,31.10
2022-12-01T19:08:48.574Z,33.20
2022-12-01T19:11:17.717Z,30.40
2022-12-01T19:13:46.161Z,33.27
2022-12-01T19:16:16.150Z,31.23
2022-12-01T19:18:46.126Z,30.30
2022-12-01T19:21:16.347Z,32.17
2022-12-01T19:23:44.898Z,36.63
2022-12-01T19:26:15.180Z,32.57
2022-12-01T19:28:45.632Z,37.97
2022-12-01T19:31:16.612Z,31.77
2022-12-01T19:33:46.473Z,31.90
2022-12-01T19:36:18.340Z,34.50
2022-12-01T19:38:47.641Z,31.13
2022-12-01T19:41:16.460Z,27.07
2022-12-01T19:43:44.662Z,33.07
2022-12-01T19:46:14.963Z,40.67
2022-12-01T19:48:45.103Z,38.53
2022-12-01T19:51:21.272Z,34.03
2022-12-01T19:53:50.189Z,36.57
2022-12-01T19:56:18.282Z,38.97
2022-12-01T19:58:47.202Z,39.20
2022-12-01T20:01:16.646Z,42.63
2022-12-01T20:03:48.820Z,36.67
2022-12-01T20:06:18.675Z,36.53
2022-12-01T20:08:47.864Z,34.73
2022-12-01T20:11:16.480Z,34.97
2022-12-01T20:13:46.117Z,33.20
2022-12-01T20:16:17.186Z,35.90
2022-12-01T20:18:45.498Z,31.07
2022-12-01T20:21:17.400Z,34.80
2022-12-01T20:23:46.947Z,32.13
2022-12-01T20:26:17.139Z,34.10
2022-12-01T20:28:46.897Z,41.43
2022-12-01T20:31:17.672Z,42.93
2022-12-01T20:33:46.683Z,36.30
2022-12-01T20:36:16.885Z,35.80
2022-12-01T20:38:45.239Z,29.77
2022-12-01T20:41:16.214Z,32.80
2022-12-01T20:43:44.465Z,35.37
2022-12-01T20:46:13.084Z,34.40
2022-12-01T20:48:41.484Z,29.57
2022-12-01T20:51:10.626Z,30.77
2022-12-01T20:53:40.100Z,28.87
2022-12-01T20:56:11.022Z,34.17
2022-12-01T20:58:40.419Z,35.13
2022-12-01T21:01:10.543Z,34.23
2022-12-01T21:03:40.229Z,36.10
2022-12-01T21:06:08.984Z,29.30
2022-12-01T21:08:39.676Z,32.90
2022-12-01T21:11:10.193Z,37.07
2022-12-01T21:13:42.467Z,38.47
2022-12-01T21:16:18.188Z,39.10
2022-12-01T21:18:52.217Z,37.30
2022-12-01T21:21:27.650Z,35.73
2022-12-01T21:24:13.786Z,36.53
2022-12-01T21:26:46.784Z,35.50
2022-12-01T21:29:24.843Z,35.20
2022-12-01T21:31:54.956Z,31.67
2022-12-01T21:34:25.124Z,37.90
2022-12-01T21:36:55.631Z,35.23
2022-12-01T21:39:26.574Z,41.37
2022-12-01T21:41:57.870Z,34.30
2022-12-01T21:44:33.926Z,27.43
2022-12-01T21:47:17.194Z,35.37
2022-12-01T21:49:45.767Z,30.77
2022-12-01T21:52:19.058Z,36.47
2022-12-01T21:54:49.129Z,29.50
2022-12-01T21:57:32.677Z,33.20
2022-12-01T22:00:26.461Z,36.83
2022-12-01T22:03:05.233Z,48.00
2022-12-01T22:05:38.639Z,32.70
2022-12-01T22:08:16.915Z,34.47
2022-12-01T22:10:57.419Z,38.20
2022-12-01T22:13:30.328Z,34.27
2022-12-01T22:15:59.354Z,31.80
2022-12-01T22:18:33.989Z,34.17
2022-12-01T22:21:18.436Z,29.53
2022-12-01T22:23:46.506Z,43.80
2022-12-01T22:26:20.579Z,41.97
2022-12-01T22:28:52.651Z,35.83
2022-12-01T22:31:22.900Z,32.70
2022-12-01T22:34:01.523Z,31.13
2022-12-01T22:36:34.601Z,31.80
2022-12-01T22:39:02.866Z,47.63
2022-12-01T22:41:33.629Z,58.43
2022-12-01T22:44:01.727Z,53.03
2022-12-01T22:46:34.028Z,61.20
2022-12-01T22:49:13.699Z,37.40
2022-12-01T22:51:44.563Z,29.47
2022-12-01T22:54:38.647Z,37.23
2022-12-01T22:57:25.358Z,54.00
2022-12-01T22:59:53.859Z,28.43
2022-12-01T23:02:24.605Z,29.97
2022-12-01T23:04:56.745Z,55.57
2022-12-01T23:07:31.614Z,38.10
2022-12-01T23:10:09.410Z,33.10
2022-12-01T23:12:39.967Z,29.43
2022-12-01T23:15:33.221Z,31.80
2022-12-01T23:18:10.639Z,31.13
2022-12-01T23:20:38.974Z,30.37
2022-12-01T23:23:13.436Z,34.67
2022-12-01T23:25:42.568Z,30.50
2022-12-01T23:28:13.430Z,28.70
2022-12-01T23:30:43.841Z,26.07
2022-12-01T23:33:18.753Z,27.77
2022-12-01T23:35:51.768Z,29.17
2022-12-01T23:38:23.284Z,24.63
2022-12-01T23:40:54.029Z,26.67
2022-12-01T23:43:26.395Z,32.53
2022-12-01T23:46:03.377Z,23.77
2022-12-01T23:48:37.032Z,27.57
2022-12-01T23:51:11.624Z,25.73
2022-12-01T23:53:41.152Z,23.23
2022-12-01T23:56:13.698Z,27.33
2022-12-01T23:58:44.437Z,26.07
